Time;durP1;ratioP1;P1;durP2;ratioP2;P2;SDS_P1;SDS_P2;PMS_P1;PMS_P2;Temp;Humidity;BMP_temperature;BMP_pressure;BME280_temperature;BME280_humidity;BME280_pressure;Samples;Min_cycle;Max_cycle;Signal;HPM_P1;HPM_P2
2023/09/12 00:00:51;;;;;;;2.78;0.80;;;;;;;16.75;48.80;98368.41;5068117;28;20215;-56
2023/09/12 00:03:20;;;;;;;0.95;0.95;;;;;;;16.78;48.84;98382.94;5068024;28;20184;-56
2023/09/12 00:05:56;;;;;;;1.67;1.13;;;;;;;16.64;49.14;98372.97;5067998;28;20315;-56
2023/09/12 00:08:23;;;;;;;2.17;0.90;;;;;;;16.86;49.23;98406.56;5067961;28;20189;-55
2023/09/12 00:11:00;;;;;;;1.25;1.10;;;;;;;16.91;49.50;98404.34;5067821;28;20204;-57
2023/09/12 00:13:25;;;;;;;1.52;1.02;;;;;;;16.78;49.82;98398.63;5067916;28;20608;-57
2023/09/12 00:15:51;;;;;;;1.52;1.02;;;;;;;16.49;50.41;98382.25;5068004;28;20180;-57
2023/09/12 00:18:16;;;;;;;1.85;1.10;;;;;;;16.36;50.49;98371.22;5067888;28;20185;-57
2023/09/12 00:20:42;;;;;;;0.70;0.70;;;;;;;16.60;50.65;98416.84;5067949;28;20663;-57
2023/09/12 00:23:07;;;;;;;1.20;1.10;;;;;;;16.48;50.91;98389.25;5067910;28;20192;-57
2023/09/12 00:25:32;;;;;;;1.15;1.08;;;;;;;16.44;51.07;98394.91;5067989;28;20292;-57
2023/09/12 00:27:58;;;;;;;0.90;0.85;;;;;;;16.56;50.77;98399.00;5067838;28;20719;-57
2023/09/12 00:30:23;;;;;;;2.83;1.20;;;;;;;16.61;50.74;98407.22;5106452;28;20187;-57
2023/09/12 00:32:49;;;;;;;1.70;1.00;;;;;;;16.59;50.99;98416.97;5110750;28;20168;-57
2023/09/12 00:35:14;;;;;;;1.77;1.10;;;;;;;16.29;51.68;98393.66;5110806;28;20692;-57
2023/09/12 00:37:39;;;;;;;1.20;1.10;;;;;;;16.37;51.50;98399.81;5110826;28;20203;-57
2023/09/12 00:40:05;;;;;;;1.42;1.08;;;;;;;16.33;51.86;98382.78;5114093;28;20648;-57
2023/09/12 00:42:31;;;;;;;1.02;1.00;;;;;;;16.43;51.67;98398.47;5114562;28;20174;-57
2023/09/12 00:44:56;;;;;;;5.35;1.00;;;;;;;16.54;51.93;98422.63;5114507;28;20680;-57
2023/09/12 00:47:23;;;;;;;1.92;0.85;;;;;;;16.42;52.09;98397.66;5114492;28;20182;-57
2023/09/12 00:49:51;;;;;;;1.77;0.95;;;;;;;16.60;52.07;98421.22;5114445;28;20175;-57
2023/09/12 00:52:18;;;;;;;1.10;1.00;;;;;;;16.68;51.51;98413.53;5113709;28;20179;-56
2023/09/12 00:54:43;;;;;;;0.70;0.70;;;;;;;16.67;51.58;98412.69;5114125;28;20271;-56
2023/09/12 00:57:09;;;;;;;1.77;0.90;;;;;;;16.49;52.02;98403.16;5114281;28;20163;-56
2023/09/12 00:59:34;;;;;;;2.17;0.98;;;;;;;16.52;51.53;98393.22;5114224;28;20175;-55
2023/09/12 01:02:01;;;;;;;2.50;0.80;;;;;;;16.68;51.30;98416.13;5114067;28;20175;-55
2023/09/12 01:04:27;;;;;;;1.10;0.98;;;;;;;16.48;51.43;98396.25;5114124;28;20187;-56
2023/09/12 01:06:52;;;;;;;1.00;0.90;;;;;;;16.60;51.67;98431.69;5114168;28;20175;-56
2023/09/12 01:09:18;;;;;;;1.70;0.80;;;;;;;16.49;51.70;98400.53;5114350;28;20663;-56
2023/09/12 01:11:44;;;;;;;1.00;1.00;;;;;;;16.40;52.02;98402.19;5113615;28;20213;-56
2023/09/12 01:14:09;;;;;;;1.38;0.85;;;;;;;16.42;52.09;98409.88;5113863;28;20255;-56
2023/09/12 01:16:35;;;;;;;1.20;1.17;;;;;;;16.49;52.16;98429.25;5113960;28;20163;-56
2023/09/12 01:19:00;;;;;;;1.27;0.95;;;;;;;16.36;52.42;98402.56;5114077;28;20270;-55
2023/09/12 01:21:42;;;;;;;0.82;0.82;;;;;;;16.45;52.65;98412.22;5113865;28;20174;-56
2023/09/12 01:24:13;;;;;;;1.05;0.90;;;;;;;16.32;53.33;98424.72;5113748;28;20275;-56
2023/09/12 01:26:49;;;;;;;0.85;0.77;;;;;;;16.22;53.19;98410.84;5113805;28;20534;-56
2023/09/12 01:29:15;;;;;;;1.10;0.98;;;;;;;16.35;53.30;98434.88;5113739;28;20651;-56
2023/09/12 01:31:43;;;;;;;1.10;0.95;;;;;;;16.30;53.44;98421.41;5113671;28;20171;-56
2023/09/12 01:34:12;;;;;;;0.77;0.77;;;;;;;16.50;53.32;98441.34;5113221;28;20290;-56
2023/09/12 01:36:37;;;;;;;0.80;0.80;;;;;;;16.45;53.53;98433.09;5113550;28;20232;-56
2023/09/12 01:39:03;;;;;;;3.60;1.20;;;;;;;16.25;54.44;98421.84;5113469;28;20176;-56
2023/09/12 01:41:31;;;;;;;2.40;1.00;;;;;;;16.33;54.20;98435.00;5113101;28;20178;-56
2023/09/12 01:43:59;;;;;;;1.35;0.70;;;;;;;16.13;54.17;98396.00;5113340;28;20201;-56
2023/09/12 01:46:26;;;;;;;1.75;1.02;;;;;;;16.33;53.51;98408.09;5113380;28;20586;-56
2023/09/12 01:48:53;;;;;;;1.20;0.90;;;;;;;16.31;53.25;98410.00;5113282;28;20171;-56
2023/09/12 01:51:20;;;;;;;1.63;0.77;;;;;;;16.41;53.17;98403.84;5112619;28;20258;-56
2023/09/12 01:53:46;;;;;;;0.80;0.80;;;;;;;16.50;53.24;98436.94;5113109;28;20309;-56
2023/09/12 01:56:13;;;;;;;1.15;1.00;;;;;;;16.25;52.48;98406.16;5113127;28;20598;-56
2023/09/12 01:58:38;;;;;;;1.15;1.00;;;;;;;16.34;52.73;98425.41;5113132;28;20171;-56
2023/09/12 02:01:04;;;;;;;2.10;1.08;;;;;;;16.23;53.29;98422.94;5113043;28;20843;-57
2023/09/12 02:03:29;;;;;;;0.98;0.88;;;;;;;16.07;53.72;98418.28;5112787;28;20171;-57
2023/09/12 02:05:55;;;;;;;1.77;0.85;;;;;;;16.21;53.81;98424.88;5112951;28;20167;-57
2023/09/12 02:08:20;;;;;;;0.73;0.73;;;;;;;16.09;53.86;98410.34;5112868;28;20198;-57
2023/09/12 02:10:45;;;;;;;1.08;0.85;;;;;;;16.08;54.03;98432.16;5112806;28;20296;-57
2023/09/12 02:13:11;;;;;;;0.70;0.70;;;;;;;16.20;54.15;98441.50;5112647;28;20696;-57
2023/09/12 02:15:36;;;;;;;1.00;1.00;;;;;;;15.95;54.43;98421.16;5112761;28;20630;-57
2023/09/12 02:18:02;;;;;;;0.80;0.80;;;;;;;16.00;54.79;98429.41;5112738;28;20180;-57
2023/09/12 02:20:27;;;;;;;1.30;1.00;;;;;;;16.12;55.00;98442.19;5112643;28;20183;-57
2023/09/12 02:22:53;;;;;;;1.35;1.00;;;;;;;16.02;55.10;98427.47;5112321;28;20171;-57
2023/09/12 02:25:18;;;;;;;1.02;0.80;;;;;;;16.17;54.80;98441.78;5112952;28;20194;-55
2023/09/12 02:27:44;;;;;;;0.80;0.80;;;;;;;16.25;54.80;98442.72;5112479;28;20183;-56
2023/09/12 02:30:09;;;;;;;2.17;0.98;;;;;;;16.22;54.82;98442.19;5112496;28;20168;-57
2023/09/12 02:32:35;;;;;;;1.85;1.15;;;;;;;16.08;54.68;98422.53;5112328;28;20210;-55
2023/09/12 02:35:00;;;;;;;0.88;0.88;;;;;;;16.13;55.18;98425.56;5112286;28;20277;-55
2023/09/12 02:37:26;;;;;;;1.42;1.00;;;;;;;15.88;56.28;98409.66;5112385;28;20250;-55
2023/09/12 02:39:51;;;;;;;2.30;0.80;;;;;;;15.82;57.35;98405.81;5112016;28;20175;-55
2023/09/12 02:42:16;;;;;;;1.83;1.05;;;;;;;15.96;56.24;98433.25;5112230;28;20215;-56
2023/09/12 02:44:42;;;;;;;1.08;1.00;;;;;;;16.07;56.00;98433.94;5112220;28;20202;-57
2023/09/12 02:47:07;;;;;;;1.30;1.00;;;;;;;15.98;55.73;98432.16;5112114;28;20266;-56
2023/09/12 02:49:33;;;;;;;1.15;0.90;;;;;;;15.95;55.31;98414.19;5112075;28;20171;-56
2023/09/12 02:51:58;;;;;;;2.08;1.02;;;;;;;15.68;56.53;98405.41;5111684;28;20225;-56
2023/09/12 02:54:24;;;;;;;2.25;0.80;;;;;;;15.63;56.27;98402.38;5111873;28;20665;-56
2023/09/12 02:56:49;;;;;;;1.00;1.00;;;;;;;15.57;57.06;98397.69;5111993;28;20232;-56
2023/09/12 02:59:14;;;;;;;1.35;0.80;;;;;;;15.66;57.13;98402.91;5111917;28;20186;-56
2023/09/12 03:01:40;;;;;;;1.98;1.35;;;;;;;15.79;56.53;98423.50;5111798;28;20178;-56
2023/09/12 03:04:05;;;;;;;0.60;0.60;;;;;;;15.82;56.51;98423.25;5111569;28;20225;-56
2023/09/12 03:06:31;;;;;;;5.60;1.00;;;;;;;15.81;56.82;98432.03;5111812;28;20187;-56
2023/09/12 03:08:56;;;;;;;0.93;0.80;;;;;;;15.95;56.15;98445.50;5111786;28;20509;-56
2023/09/12 03:11:21;;;;;;;1.33;0.90;;;;;;;15.64;56.54;98409.22;5111370;28;20200;-56
2023/09/12 03:13:47;;;;;;;0.77;0.77;;;;;;;15.75;56.64;98428.16;5111302;28;20199;-56
2023/09/12 03:16:14;;;;;;;1.10;1.10;;;;;;;15.76;56.47;98429.00;5111522;28;20321;-56
2023/09/12 03:18:40;;;;;;;4.15;1.00;;;;;;;15.86;56.38;98450.72;5111628;28;20179;-57
2023/09/12 03:21:05;;;;;;;0.90;0.90;;;;;;;15.81;56.40;98445.09;5111586;28;20638;-56
2023/09/12 03:23:31;;;;;;;2.55;0.98;;;;;;;15.69;56.85;98438.34;5111561;28;20171;-57
2023/09/12 03:26:02;;;;;;;3.40;1.00;;;;;;;15.76;57.05;98452.50;5111494;28;20669;-56
2023/09/12 03:28:28;;;;;;;1.38;1.10;;;;;;;15.78;56.89;98461.00;5111488;28;20273;-56
2023/09/12 03:31:04;;;;;;;0.90;0.90;;;;;;;15.71;57.06;98462.50;5111375;28;20615;-56
2023/09/12 03:33:29;;;;;;;0.90;0.90;;;;;;;15.46;57.47;98426.50;5111295;28;20642;-56
2023/09/12 03:35:55;;;;;;;1.85;1.20;;;;;;;15.58;57.87;98448.91;5111364;28;20198;-56
2023/09/12 03:38:20;;;;;;;1.50;1.00;;;;;;;15.44;58.67;98444.06;5111332;28;20171;-56
2023/09/12 03:40:45;;;;;;;2.42;0.80;;;;;;;15.41;58.10;98445.16;5111179;28;20519;-56
2023/09/12 03:43:11;;;;;;;0.85;0.85;;;;;;;15.57;58.68;98461.09;5111171;28;20172;-56
2023/09/12 03:45:37;;;;;;;1.98;0.95;;;;;;;15.52;58.93;98465.09;5111242;28;20175;-56
2023/09/12 03:48:03;;;;;;;1.58;1.00;;;;;;;15.58;59.01;98472.38;5111127;28;20203;-57
2023/09/12 03:50:28;;;;;;;0.90;0.90;;;;;;;15.53;58.85;98453.69;5111259;28;20215;-56
2023/09/12 03:52:53;;;;;;;2.67;0.80;;;;;;;15.63;58.81;98470.19;5047850;28;20185;-56
2023/09/12 03:55:19;;;;;;;0.80;0.80;;;;;;;15.46;58.37;98436.94;5048170;28;20197;-56
2023/09/12 03:57:44;;;;;;;1.13;1.02;;;;;;;15.69;58.07;98467.03;5048154;28;20291;-57
2023/09/12 04:00:10;;;;;;;1.00;1.00;;;;;;;15.58;58.68;98451.50;5048052;28;20177;-56
2023/09/12 04:02:35;;;;;;;1.85;1.13;;;;;;;15.53;58.79;98469.34;5048060;28;20204;-56
2023/09/12 04:05:01;;;;;;;2.78;1.00;;;;;;;15.50;58.82;98464.38;5047986;28;20272;-56
2023/09/12 04:07:26;;;;;;;1.08;1.00;;;;;;;15.54;58.94;98477.03;5048043;28;20181;-56
2023/09/12 04:09:52;;;;;;;1.42;1.20;;;;;;;15.62;58.44;98473.75;5047899;28;20177;-56
2023/09/12 04:12:17;;;;;;;0.90;0.90;;;;;;;15.51;58.81;98461.63;5048059;28;20197;-57
2023/09/12 04:14:42;;;;;;;1.85;1.20;;;;;;;15.64;58.30;98475.25;5050841;28;20296;-56
2023/09/12 04:17:08;;;;;;;1.08;0.98;;;;;;;15.57;58.64;98468.94;5052261;28;20181;-56
2023/09/12 04:19:33;;;;;;;0.88;0.82;;;;;;;15.64;58.85;98471.84;5051806;28;20354;-57
2023/09/12 04:21:59;;;;;;;0.65;0.65;;;;;;;15.66;58.52;98478.56;5051802;28;20285;-56
2023/09/12 04:24:25;;;;;;;1.10;0.90;;;;;;;15.54;58.74;98458.78;5097245;28;20734;-56
2023/09/12 04:26:50;;;;;;;1.67;0.90;;;;;;;15.64;58.18;98474.44;5114634;28;20222;-56
2023/09/12 04:29:16;;;;;;;1.23;1.00;;;;;;;15.71;58.01;98473.78;5114862;28;20180;-56
2023/09/12 04:31:41;;;;;;;1.92;1.25;;;;;;;15.68;58.01;98457.56;5114838;28;20248;-57
2023/09/12 04:34:06;;;;;;;1.05;1.00;;;;;;;15.62;58.06;98437.25;5114627;28;20707;-55
2023/09/12 04:36:32;;;;;;;3.85;1.70;;;;;;;15.78;57.52;98453.16;5114658;28;20317;-55
2023/09/12 04:38:58;;;;;;;1.50;1.00;;;;;;;15.95;57.45;98470.75;5114675;28;20171;-55
2023/09/12 04:41:23;;;;;;;1.50;1.20;;;;;;;15.86;57.35;98466.38;5114262;28;20175;-55
2023/09/12 04:43:48;;;;;;;2.25;1.60;;;;;;;15.75;57.14;98449.03;5114582;28;20180;-55
2023/09/12 04:46:14;;;;;;;0.98;0.95;;;;;;;15.69;57.29;98425.31;5114501;28;20168;-55
2023/09/12 04:48:40;;;;;;;2.70;1.90;;;;;;;15.84;57.72;98458.69;5114517;28;20237;-56
2023/09/12 04:51:05;;;;;;;1.15;1.10;;;;;;;15.82;57.35;98439.72;5114468;28;20175;-57
2023/09/12 04:53:34;;;;;;;1.45;1.00;;;;;;;15.98;57.27;98454.84;5114354;28;20359;-57
2023/09/12 04:56:03;;;;;;;2.15;1.05;;;;;;;15.90;57.46;98441.63;5114376;28;20171;-57
2023/09/12 04:58:29;;;;;;;1.00;1.00;;;;;;;16.14;56.88;98466.38;5114346;28;20497;-57
2023/09/12 05:00:55;;;;;;;2.00;1.00;;;;;;;16.19;57.23;98473.78;5114262;28;20184;-57
2023/09/12 05:03:21;;;;;;;1.20;1.00;;;;;;;16.00;57.05;98426.81;5113827;28;20558;-56
2023/09/12 05:05:48;;;;;;;1.63;1.15;;;;;;;16.24;57.49;98471.56;5114582;28;20732;-56
2023/09/12 05:08:13;;;;;;;1.25;1.15;;;;;;;16.17;56.96;98444.38;5114060;28;20190;-56
2023/09/12 05:10:39;;;;;;;2.05;1.08;;;;;;;16.30;56.46;98443.13;5114113;28;20572;-57
2023/09/12 05:13:05;;;;;;;0.88;0.88;;;;;;;16.48;57.01;98465.00;5113915;28;20206;-56
2023/09/12 05:15:30;;;;;;;1.10;1.00;;;;;;;16.56;56.39;98453.84;5114054;28;20282;-56
2023/09/12 05:17:55;;;;;;;1.23;0.90;;;;;;;16.55;56.63;98437.34;5113985;28;20236;-56
2023/09/12 05:20:21;;;;;;;1.23;1.02;;;;;;;16.75;56.32;98461.63;5113913;28;20171;-57
2023/09/12 05:22:46;;;;;;;2.25;1.20;;;;;;;16.80;56.26;98446.34;5113745;28;20203;-57
2023/09/12 05:25:12;;;;;;;1.20;1.00;;;;;;;16.82;55.02;98431.34;5112083;28;20175;-56
2023/09/12 05:27:37;;;;;;;1.40;1.30;;;;;;;17.16;54.45;98475.09;5113776;28;20257;-56
2023/09/12 05:30:03;;;;;;;2.63;2.10;;;;;;;17.10;54.85;98469.63;5113558;28;20193;-56
2023/09/12 05:32:28;;;;;;;2.75;1.20;;;;;;;17.12;54.70;98473.75;5113615;28;20175;-56
2023/09/12 05:34:57;;;;;;;2.90;1.20;;;;;;;16.95;54.93;98426.59;5113475;28;20677;-56
2023/09/12 05:37:22;;;;;;;14.27;2.10;;;;;;;17.17;55.06;98465.44;5113484;28;20188;-56
2023/09/12 05:39:48;;;;;;;5.57;1.15;;;;;;;17.09;54.95;98454.91;5113467;28;20178;-56
2023/09/12 05:42:14;;;;;;;1.98;0.90;;;;;;;17.24;55.37;98463.91;5113398;28;20167;-57
2023/09/12 05:44:42;;;;;;;1.00;0.90;;;;;;;17.27;55.59;98459.22;5113510;28;20198;-56
2023/09/12 05:47:07;;;;;;;0.90;0.90;;;;;;;17.34;55.21;98439.38;5113428;28;20231;-56
2023/09/12 05:49:34;;;;;;;1.95;1.00;;;;;;;17.36;54.54;98428.72;5113470;28;20672;-56
2023/09/12 05:51:59;;;;;;;1.70;1.20;;;;;;;17.73;53.65;98466.94;5113266;28;20203;-56
2023/09/12 05:54:25;;;;;;;2.00;1.17;;;;;;;17.53;53.53;98422.75;5113231;28;20249;-56
2023/09/12 05:56:52;;;;;;;3.03;1.08;;;;;;;17.75;53.73;98443.25;5113308;28;20656;-56
2023/09/12 05:59:17;;;;;;;1.80;1.23;;;;;;;17.90;53.46;98454.88;5113159;28;20212;-56
2023/09/12 06:01:43;;;;;;;1.27;1.00;;;;;;;18.04;53.18;98460.41;5113461;28;20168;-57
2023/09/12 06:04:09;;;;;;;7.25;1.40;;;;;;;18.10;52.41;98449.31;5113097;28;20750;-57
2023/09/12 06:06:34;;;;;;;1.23;1.13;;;;;;;18.12;52.05;98436.09;5113150;28;20199;-57
2023/09/12 06:09:00;;;;;;;1.20;1.02;;;;;;;18.22;52.13;98432.41;5113184;28;20228;-57
2023/09/12 06:11:25;;;;;;;0.82;0.70;;;;;;;18.34;51.69;98441.69;5113107;28;20191;-57
2023/09/12 06:13:51;;;;;;;3.92;0.90;;;;;;;18.47;51.59;98460.44;5112818;28;20203;-58
2023/09/12 06:16:16;;;;;;;1.52;1.23;;;;;;;18.44;51.24;98452.06;5111953;28;20617;-57
2023/09/12 06:18:41;;;;;;;0.88;0.88;;;;;;;18.66;51.28;98475.16;5113062;28;20885;-57
2023/09/12 06:21:08;;;;;;;4.88;1.35;;;;;;;18.82;51.33;98488.38;5112847;28;20232;-57
2023/09/12 06:23:34;;;;;;;1.75;1.60;;;;;;;18.89;50.88;98468.44;5112819;28;20179;-57
2023/09/12 06:25:59;;;;;;;1.30;0.90;;;;;;;19.17;49.95;98493.50;5112755;28;20228;-57
2023/09/12 06:28:30;;;;;;;1.52;1.10;;;;;;;19.22;50.07;98476.34;5112644;28;20175;-57
2023/09/12 06:30:59;;;;;;;2.33;1.30;;;;;;;19.43;50.08;98502.16;5112661;28;20168;-57
2023/09/12 06:33:28;;;;;;;1.42;1.10;;;;;;;19.56;49.72;98494.66;5112548;28;20286;-57
2023/09/12 06:35:53;;;;;;;1.55;1.20;;;;;;;19.54;49.24;98480.88;5112133;28;20252;-57
2023/09/12 06:38:20;;;;;;;1.80;1.13;;;;;;;19.75;48.96;98502.28;5112131;28;20645;-57
2023/09/12 06:40:48;;;;;;;2.47;1.85;;;;;;;19.83;50.35;98497.88;5112421;28;20172;-57
2023/09/12 06:43:14;;;;;;;8.50;2.30;;;;;;;20.04;52.95;98510.56;5112383;28;20703;-57
2023/09/12 06:45:42;;;;;;;6.43;2.58;;;;;;;20.10;53.60;98496.81;5112063;28;20171;-57
2023/09/12 06:48:08;;;;;;;7.57;2.75;;;;;;;20.25;53.61;98510.94;5112270;28;20175;-57
2023/09/12 06:50:34;;;;;;;3.95;2.00;;;;;;;20.24;53.37;98483.88;5112276;28;20660;-57
2023/09/12 06:52:59;;;;;;;8.32;2.50;;;;;;;20.35;53.09;98480.88;5111900;28;20175;-57
2023/09/12 06:55:25;;;;;;;7.80;2.88;;;;;;;20.57;52.87;98500.47;5112152;28;20178;-57
2023/09/12 06:57:50;;;;;;;7.18;3.08;;;;;;;20.51;52.30;98487.97;5111968;28;20219;-57
2023/09/12 07:00:16;;;;;;;6.50;2.17;;;;;;;20.57;51.74;98474.97;5111430;28;20171;-57
2023/09/12 07:02:42;;;;;;;14.07;2.42;;;;;;;20.89;51.20;98511.78;5111278;28;20217;-57
2023/09/12 07:05:07;;;;;;;4.72;2.33;;;;;;;20.87;52.18;98479.53;5112284;28;20217;-57
2023/09/12 07:07:33;;;;;;;14.90;3.28;;;;;;;20.95;52.02;98476.09;5112050;28;20172;-57
2023/09/12 07:09:59;;;;;;;6.88;2.50;;;;;;;21.18;50.44;98513.84;5111635;28;20625;-56
2023/09/12 07:12:25;;;;;;;9.77;2.45;;;;;;;21.12;50.43;98488.22;5111987;28;20229;-56
2023/09/12 07:14:51;;;;;;;8.68;2.30;;;;;;;21.18;50.92;98482.28;5111812;28;20210;-55
2023/09/12 07:17:20;;;;;;;5.28;1.98;;;;;;;21.21;49.32;98479.31;5111709;28;20206;-55
2023/09/12 07:19:46;;;;;;;7.70;2.10;;;;;;;21.34;50.01;98476.97;5111794;28;20167;-56
2023/09/12 07:22:11;;;;;;;8.25;2.50;;;;;;;21.59;50.20;98502.19;5111580;28;20209;-55
2023/09/12 07:24:36;;;;;;;6.32;2.20;;;;;;;21.71;49.68;98503.47;5111609;28;20179;-55
2023/09/12 07:27:02;;;;;;;4.18;1.92;;;;;;;21.81;49.54;98514.63;5111574;28;20219;-55
2023/09/12 07:29:28;;;;;;;7.00;2.00;;;;;;;21.92;48.64;98512.41;5111558;28;20232;-55
2023/09/12 07:31:53;;;;;;;3.88;1.67;;;;;;;21.84;48.70;98474.75;5111235;28;20234;-56
2023/09/12 07:34:23;;;;;;;2.88;2.05;;;;;;;22.02;48.79;98491.94;5111168;28;20209;-55
2023/09/12 07:36:51;;;;;;;3.42;1.88;;;;;;;22.22;49.40;98502.84;5111600;28;20186;-56
2023/09/12 07:39:16;;;;;;;5.78;2.00;;;;;;;22.22;49.12;98494.94;5111479;28;20573;-57
2023/09/12 07:41:41;;;;;;;3.85;1.90;;;;;;;22.14;49.49;98471.28;5111189;28;20175;-56
2023/09/12 07:44:10;;;;;;;6.78;1.67;;;;;;;22.43;49.19;98505.66;5111390;28;20175;-56
2023/09/12 07:46:36;;;;;;;3.72;2.30;;;;;;;22.42;49.09;98485.53;5111410;28;20228;-56
2023/09/12 07:49:01;;;;;;;8.70;2.38;;;;;;;22.49;48.12;98486.53;5110416;28;20179;-57
2023/09/12 07:51:27;;;;;;;2.47;2.10;;;;;;;22.60;47.84;98492.19;5111328;28;20167;-57
2023/09/12 07:53:52;;;;;;;2.28;1.70;;;;;;;22.65;46.99;98489.00;5111081;28;20203;-56
2023/09/12 07:56:17;;;;;;;6.22;2.20;;;;;;;22.82;46.89;98511.59;5111608;28;20865;-56
2023/09/12 07:58:43;;;;;;;4.88;2.20;;;;;;;22.81;46.59;98499.41;5111248;28;20171;-56
2023/09/12 08:01:09;;;;;;;5.70;2.50;;;;;;;22.77;46.70;98487.56;5111208;28;20179;-57
2023/09/12 08:03:36;;;;;;;5.25;1.98;;;;;;;22.67;47.17;98464.09;5111146;28;20179;-55
2023/09/12 08:06:02;;;;;;;6.72;2.70;;;;;;;22.73;47.27;98473.13;5111221;28;20185;-56
2023/09/12 08:08:28;;;;;;;7.50;2.60;;;;;;;22.76;47.04;98462.19;5111262;28;20179;-56
2023/09/12 08:11:00;;;;;;;7.72;2.53;;;;;;;22.87;46.78;98496.06;5108285;28;20234;-56
2023/09/12 08:13:29;;;;;;;5.63;2.10;;;;;;;23.02;46.80;98504.81;5087961;28;20268;-56
2023/09/12 08:15:56;;;;;;;6.13;2.22;;;;;;;23.15;46.86;98499.72;5088322;28;20237;-56
2023/09/12 08:18:21;;;;;;;9.82;2.67;;;;;;;23.12;47.11;98481.59;5047864;28;20196;-56
2023/09/12 08:20:47;;;;;;;10.75;2.85;;;;;;;23.30;45.50;98482.09;5048004;28;20185;-56
2023/09/12 08:23:12;;;;;;;6.53;2.92;;;;;;;23.33;45.60;98479.09;5048018;28;20193;-56
2023/09/12 08:25:39;;;;;;;3.25;2.95;;;;;;;23.47;45.61;98499.38;5048134;28;20185;-56
2023/09/12 08:28:05;;;;;;;7.78;2.92;;;;;;;23.49;45.40;98497.38;5027829;28;20190;-56
2023/09/12 08:30:30;;;;;;;10.60;2.95;;;;;;;23.43;45.29;98471.72;5027965;28;20182;-56
2023/09/12 08:32:55;;;;;;;5.90;2.55;;;;;;;23.59;44.87;98487.38;5027795;28;20185;-56
2023/09/12 08:35:21;;;;;;;3.30;2.50;;;;;;;23.59;44.87;98477.59;5027975;28;20590;-56
2023/09/12 08:37:47;;;;;;;7.43;3.60;;;;;;;23.67;44.51;98468.75;5028193;28;20201;-57
2023/09/12 08:40:13;;;;;;;9.48;4.03;;;;;;;23.75;43.38;98470.25;5027955;28;20185;-56
2023/09/12 08:42:41;;;;;;;13.30;4.60;;;;;;;23.83;43.42;98470.16;5028010;28;20300;-56
2023/09/12 08:45:17;;;;;;;13.73;6.35;;;;;;;23.81;43.17;98455.50;5043542;28;20189;-56
2023/09/12 08:47:49;;;;;;;9.05;5.25;;;;;;;24.05;43.42;98489.53;5047925;28;20196;-57
2023/09/12 08:50:19;;;;;;;8.77;3.63;;;;;;;24.08;43.79;98489.97;5065386;28;20189;-57
2023/09/12 08:52:45;;;;;;;8.77;3.50;;;;;;;24.08;43.99;98489.19;5067834;28;20235;-56
2023/09/12 08:55:11;;;;;;;7.00;3.40;;;;;;;23.92;43.01;98463.78;5027578;28;20296;-57
2023/09/12 08:57:44;;;;;;;5.60;2.80;;;;;;;24.20;43.00;98488.47;5027924;28;20281;-56
2023/09/12 09:00:13;;;;;;;5.55;3.10;;;;;;;24.04;43.24;98458.81;5029443;28;20771;-57
2023/09/12 09:02:39;;;;;;;10.55;3.17;;;;;;;24.06;42.80;98458.66;5031690;28;20181;-56
2023/09/12 09:05:09;;;;;;;8.63;2.70;;;;;;;24.23;42.65;98481.19;5037789;28;20439;-57
2023/09/12 09:07:39;;;;;;;4.60;2.50;;;;;;;24.28;42.44;98475.16;5051153;28;20204;-56
2023/09/12 09:10:06;;;;;;;8.40;2.33;;;;;;;24.28;42.07;98459.28;5050891;28;20177;-56
2023/09/12 09:12:33;;;;;;;7.15;3.25;;;;;;;24.41;42.57;98474.44;5051179;28;20189;-56
2023/09/12 09:14:59;;;;;;;12.77;2.80;;;;;;;24.49;42.16;98475.13;5050984;28;20208;-56
2023/09/12 09:17:25;;;;;;;5.20;2.30;;;;;;;24.52;42.02;98460.69;5051017;28;20215;-57
2023/09/12 09:19:51;;;;;;;9.55;2.90;;;;;;;24.61;41.51;98463.03;5050887;28;20196;-57
2023/09/12 09:22:16;;;;;;;5.75;2.90;;;;;;;24.62;41.23;98469.16;5050923;28;20654;-57
2023/09/12 09:24:42;;;;;;;11.02;2.97;;;;;;;24.70;41.40;98463.72;5050972;28;20924;-57
2023/09/12 09:27:07;;;;;;;5.22;2.40;;;;;;;24.73;41.22;98450.91;5050912;28;20532;-57
2023/09/12 09:29:46;;;;;;;6.90;1.90;;;;;;;24.86;40.56;98448.38;5050686;28;20582;-56
2023/09/12 09:32:17;;;;;;;7.88;2.92;;;;;;;24.91;40.09;98445.94;5064529;28;20187;-57
2023/09/12 09:34:43;;;;;;;8.52;2.70;;;;;;;24.98;39.58;98435.38;5093417;28;20262;-56
2023/09/12 09:37:09;;;;;;;8.00;2.75;;;;;;;25.04;39.89;98435.44;5093117;28;20188;-56
2023/09/12 09:39:35;;;;;;;4.80;2.30;;;;;;;25.27;39.13;98456.38;5093582;28;20190;-56
2023/09/12 09:42:00;;;;;;;9.45;2.65;;;;;;;25.36;39.48;98458.66;5093289;28;20172;-56
2023/09/12 09:44:26;;;;;;;5.35;2.40;;;;;;;25.32;38.98;98438.84;5093253;28;20180;-57
2023/09/12 09:47:10;;;;;;;4.88;2.90;;;;;;;25.41;39.20;98437.69;5093166;28;20194;-57
2023/09/12 09:49:36;;;;;;;5.43;2.50;;;;;;;25.58;39.46;98440.78;5050402;28;20264;-56
2023/09/12 09:52:05;;;;;;;7.30;2.33;;;;;;;25.62;39.60;98432.28;5050409;28;20276;-57
2023/09/12 09:54:30;;;;;;;4.53;2.03;;;;;;;25.49;39.14;98429.56;5030126;28;20225;-56
2023/09/12 09:56:56;;;;;;;6.03;2.50;;;;;;;25.74;38.29;98457.19;5030463;28;20186;-56
2023/09/12 09:59:26;;;;;;;11.73;2.65;;;;;;;25.73;38.33;98436.97;5030532;28;20201;-57
2023/09/12 10:02:03;;;;;;;7.63;2.58;;;;;;;25.82;38.32;98433.13;5030074;28;20639;-56
2023/09/12 10:04:28;;;;;;;5.28;2.50;;;;;;;26.13;37.52;98454.63;5030110;28;20201;-57
2023/09/12 10:06:56;;;;;;;4.22;2.45;;;;;;;26.10;37.99;98436.47;5030184;28;20335;-57
2023/09/12 10:09:28;;;;;;;6.15;2.55;;;;;;;26.09;37.73;98416.28;5030076;28;20201;-56
2023/09/12 10:11:56;;;;;;;6.10;3.17;;;;;;;26.30;37.88;98425.91;5029211;28;20201;-56
2023/09/12 10:14:23;;;;;;;8.77;2.75;;;;;;;26.35;37.43;98445.47;5029872;28;20699;-56
2023/09/12 10:16:51;;;;;;;5.93;2.83;;;;;;;26.34;37.53;98411.19;5030038;28;20189;-57
2023/09/12 10:19:20;;;;;;;4.60;3.15;;;;;;;26.54;37.48;98428.75;5029902;28;20186;-57
2023/09/12 10:22:00;;;;;;;5.75;3.97;;;;;;;26.76;37.49;98448.75;5049526;28;20197;-56
2023/09/12 10:24:27;;;;;;;8.57;3.67;;;;;;;26.72;36.82;98409.56;5050932;28;20687;-56
2023/09/12 10:26:54;;;;;;;9.07;4.57;;;;;;;27.00;36.55;98432.16;5069716;28;20230;-56
2023/09/12 10:29:20;;;;;;;10.75;4.95;;;;;;;26.98;36.84;98407.66;5069603;28;20188;-55
2023/09/12 10:31:48;;;;;;;6.00;3.22;;;;;;;26.97;36.71;98403.38;5069620;28;20183;-56
2023/09/12 10:34:15;;;;;;;7.80;2.35;;;;;;;27.30;36.45;98430.69;5071887;28;20294;-56
2023/09/12 10:36:42;;;;;;;4.70;2.30;;;;;;;27.26;36.55;98400.25;5072005;28;20168;-56
2023/09/12 10:39:12;;;;;;;3.78;2.38;;;;;;;27.54;36.05;98416.69;5071927;28;20303;-56
2023/09/12 10:41:39;;;;;;;3.65;2.30;;;;;;;27.60;35.51;98396.41;5071631;28;20582;-56
2023/09/12 10:44:14;;;;;;;3.50;2.33;;;;;;;27.84;35.78;98401.84;5071883;28;20184;-56
2023/09/12 10:46:41;;;;;;;3.90;2.03;;;;;;;28.08;34.98;98409.03;5071907;28;20180;-56
2023/09/12 10:49:11;;;;;;;3.80;2.20;;;;;;;28.35;35.48;98426.44;5071702;28;20200;-56
2023/09/12 10:51:41;;;;;;;4.45;1.98;;;;;;;28.25;34.37;98388.03;5071766;28;20203;-56
2023/09/12 10:54:08;;;;;;;2.83;2.08;;;;;;;28.51;34.22;98395.84;5071567;28;20242;-57
2023/09/12 10:56:34;;;;;;;5.47;2.22;;;;;;;28.83;33.96;98410.66;5071314;28;20648;-57
2023/09/12 10:59:12;;;;;;;5.85;2.00;;;;;;;28.95;34.02;98407.09;5071456;28;20536;-57
2023/09/12 11:01:48;;;;;;;4.53;2.15;;;;;;;29.07;34.02;98404.50;5071624;28;20178;-56
2023/09/12 11:04:19;;;;;;;4.90;1.92;;;;;;;29.23;33.68;98399.41;5071365;28;20211;-57
2023/09/12 11:06:46;;;;;;;9.65;2.30;;;;;;;29.25;34.31;98383.97;5071481;28;20552;-56
2023/09/12 11:09:14;;;;;;;14.48;2.33;;;;;;;29.37;35.16;98395.53;5071294;28;20615;-56
2023/09/12 11:11:41;;;;;;;6.00;2.22;;;;;;;29.14;34.46;98363.41;5101725;28;20234;-56
2023/09/12 11:14:07;;;;;;;3.65;2.70;;;;;;;29.11;35.00;98355.88;5111793;28;20217;-56
2023/09/12 11:16:33;;;;;;;6.35;2.25;;;;;;;29.26;35.03;98376.81;5111816;28;20225;-57
2023/09/12 11:19:18;;;;;;;3.58;2.20;;;;;;;29.58;35.04;98388.94;5111690;28;20637;-56
2023/09/12 11:21:51;;;;;;;5.43;1.92;;;;;;;29.53;33.90;98359.44;5111707;28;20167;-56
2023/09/12 11:24:17;;;;;;;3.35;1.95;;;;;;;29.65;34.01;98379.81;5111646;28;20175;-56
2023/09/12 11:26:59;;;;;;;5.93;2.53;;;;;;;29.69;34.10;98367.66;5111629;28;20290;-56
2023/09/12 11:29:36;;;;;;;9.85;2.45;;;;;;;29.67;34.05;98372.38;5111644;28;20253;-56
2023/09/12 11:32:03;;;;;;;3.47;2.67;;;;;;;29.61;34.97;98346.59;5111489;28;20171;-56